ADDS METAR Data INFO
IDs: Format: Raw Decoded Include TAF

Data at: 1203 UTC 21 Jun 2018

KRNP 211155Z AUTO 08003KT 10SM CLR 17/14 A2990 RMK AO2 6//// 7//// T01660141
KRNP 211135Z AUTO 09003KT 10SM CLR 16/15 A2990 RMK AO2 T01570145
KRNP 211115Z AUTO 00000KT 10SM CLR 15/15 A2990 RMK AO2 T01530147
KRNP 211055Z AUTO 00000KT 7SM CLR 14/14 A2989 RMK AO2 T01420137
KRNP 211035Z AUTO 00000KT 1SM BR VV007 13/13 A2988 RMK AO2 VIS 3/4V3 T01340127
KRNP 211022Z AUTO 00000KT 4SM BR SCT001 13/12 A2988 RMK AO2 T01320124
KRNP 210957Z AUTO 00000KT 4SM BR CLR 13/12 A2987 RMK AO2 T01300121
KRNP 210936Z AUTO 00000KT 3SM BR CLR 13/12 A2987 RMK AO2 T01340124
KRNP 210915Z AUTO 00000KT 5SM BR CLR 13/12 A2987 RMK AO2 T01310121
KRNP 210859Z AUTO 00000KT 5SM BR CLR 13/12 A2986 RMK AO2 6//// T01340124
KRNP 210838Z AUTO 00000KT 10SM CLR 14/13 A2987 RMK AO2 T01360126
KRNP 210818Z AUTO 00000KT 4SM BR CLR A2987 RMK AO2
KRNP 210757Z AUTO 00000KT 1/2SM FG VV005 14/13 A2986 RMK AO2 T01380128
KRNP 210737Z AUTO 00000KT 5SM BR CLR 14/13 A2987 RMK AO2 T01420131
KRNP 210715Z AUTO 00000KT 2 1/2SM BR CLR 15/14 A2987 RMK AO2 T01460135
KRNP 210655Z AUTO 00000KT 2SM BR CLR 15/13 A2988 RMK AO2 VIS 1V5 T01450133
KRNP 210637Z AUTO 00000KT 2SM BR CLR 14/13 A2988 RMK AO2 T01430131
KRNP 210615Z AUTO 00000KT 5SM BR CLR 15/14 A2988 RMK AO2 T01490136
KRNP 210555Z AUTO 00000KT 5SM BR CLR 15/14 A2988 RMK AO2 T01500136 10221 20150
KRNP 210535Z AUTO 00000KT 5SM BR CLR 15/14 A2987 RMK AO2 T01530140
KRNP 210515Z AUTO 00000KT 3SM BR CLR 16/14 A2988 RMK AO2 T01550141
KRNP 210455Z AUTO 00000KT 7SM CLR 16/14 A2988 RMK AO2 T01570142 402300147
KRNP 210435Z AUTO 00000KT 10SM CLR 16/14 A2988 RMK AO2 T01560139
KRNP 210415Z AUTO 00000KT 10SM CLR 16/15 A2988 RMK AO2 T01620145
KRNP 210355Z AUTO 00000KT 10SM CLR 17/15 A2989 RMK AO2 T01660148
KRNP 210335Z AUTO 00000KT 10SM CLR 17/15 A2989 RMK AO2 T01690148
KRNP 210315Z AUTO 00000KT 10SM CLR 17/15 A2989 RMK AO2 T01740150
KRNP 210255Z AUTO 00000KT 10SM CLR 18/15 A2989 RMK AO2 T01770151
KRNP 210235Z AUTO 00000KT 10SM SCT080 18/15 A2989 RMK AO2 T01800151
KRNP 210215Z AUTO 00000KT 10SM OVC080 19/15 A2989 RMK AO2 T01850154
KRNP 210155Z AUTO 00000KT 10SM BKN080 18/15 A2989 RMK AO2 T01830151
KRNP 210135Z AUTO 00000KT 10SM SCT080 19/15 A2988 RMK AO2 T01880149
KRNP 210115Z AUTO 00000KT 10SM CLR 20/15 A2988 RMK AO2 T01960152
KRNP 210055Z AUTO 00000KT 10SM CLR 22/15 A2987 RMK AO2 T02150151
KRNP 210035Z AUTO 00000KT 10SM CLR 22/15 A2986 RMK AO2 T02190148
KRNP 210015Z AUTO 00000KT 10SM CLR 22/14 A2985 RMK AO2 T02200141
KRNP 202355Z AUTO 00000KT 10SM CLR 22/14 A2985 RMK AO2 T02210141 10230 20195
KRNP 202335Z AUTO 00000KT 10SM CLR 22/14 A2984 RMK AO2 T02220139
KRNP 202315Z AUTO 04006KT 10SM CLR 23/14 A2984 RMK AO2 T02250139
KRNP 202255Z AUTO 02004KT 10SM CLR 23/14 A2984 RMK AO2 T02250138
KRNP 202235Z AUTO 05005KT 10SM SCT034 SCT060 23/14 A2984 RMK AO2 T02290143
KRNP 202215Z AUTO 04005KT 10SM BKN034 23/14 A2985 RMK AO2 T02270144
KRNP 202155Z AUTO 04003KT 10SM SCT032 SCT070 23/14 A2986 RMK AO2 T02250139
KRNP 202135Z AUTO 04005KT 10SM BKN080 22/14 A2986 RMK AO2 T02210142
KRNP 202115Z AUTO 03003KT 10SM SCT028 OVC080 23/14 A2986 RMK AO2 T02250142
KRNP 202055Z AUTO 01003KT 10SM SCT028 SCT080 22/14 A2988 RMK AO2 T02190141
KRNP 202035Z AUTO 00000KT 10SM SCT080 22/14 A2988 RMK AO2 T02220140
KRNP 202015Z AUTO 04004KT 10SM BKN080 22/14 A2988 RMK AO2 T02200143
KRNP 201955Z AUTO 05004KT 10SM OVC080 22/14 A2989 RMK AO2 T02200142
KRNP 201935Z AUTO 05005KT 10SM OVC080 22/14 A2989 RMK AO2 T02150139
KRNP 201915Z AUTO 07005KT 10SM SCT042 OVC080 21/14 A2990 RMK AO2 T02100136
KRNP 201855Z AUTO 04004KT 10SM OVC042 21/14 A2991 RMK AO2 T02100135
KRNP 201835Z AUTO 05003KT 10SM SCT020 OVC042 20/14 A2991 RMK AO2 T02020141
KRNP 201815Z AUTO 00000KT 10SM OVC040 20/13 A2991 RMK AO2 T01970130
KRNP 201755Z AUTO 03005KT 10SM OVC040 19/13 A2991 RMK AO2 T01940127 10194 20147
KRNP 201735Z AUTO 04003KT 10SM OVC038 19/13 A2991 RMK AO2 T01860125
KRNP 201715Z AUTO 00000KT 10SM OVC038 18/12 A2992 RMK AO2 T01810122
KRNP 201655Z AUTO 00000KT 10SM OVC038 18/12 A2992 RMK AO2 T01780124
KRNP 201635Z AUTO 08003KT 10SM OVC040 18/12 A2992 RMK AO2 T01750121
KRNP 201615Z AUTO 00000KT 10SM OVC038 17/13 A2993 RMK AO2 T01710125
KRNP 201555Z AUTO 03003KT 10SM OVC038 17/13 A2992 RMK AO2 T01700131
KRNP 201535Z AUTO 00000KT 10SM OVC040 17/13 A2992 RMK AO2 T01680131
KRNP 201515Z AUTO 08003KT 10SM OVC040 17/13 A2992 RMK AO2 T01660130
KRNP 201455Z AUTO 08004KT 10SM OVC040 17/13 A2991 RMK AO2 T01660131
KRNP 201435Z AUTO 07003KT 10SM SCT042 OVC050 17/13 A2991 RMK AO2 T01650131
KRNP 201415Z AUTO 08003KT 10SM BKN048 OVC050 16/13 A2991 RMK AO2 T01580130
KRNP 201355Z AUTO 10006KT 10SM OVC045 15/13 A2991 RMK AO2 T01540127
KRNP 201335Z AUTO 10007KT 7SM -DZ SCT034 BKN042 OVC055 15/13 A2992 RMK AO2 T01500126
KRNP 201315Z AUTO 10003KT 5SM DZ SCT017 SCT027 OVC042 15/12 A2992 RMK AO2 T01470124
KRNP 201255Z AUTO 07003KT 10SM BKN017 OVC040 15/12 A2994 RMK AO2 T01470120
KRNP 201235Z AUTO 05004KT 7SM BKN015 BKN038 OVC060 15/11 A2994 RMK AO2 T01500114
KRNP 201215Z AUTO 06005KT 10SM SCT038 OVC060 16/11 A2993 RMK AO2 T01550106
KRNP 201155Z AUTO 05010G15KT 10SM BKN038 OVC060 16/11 A2992 RMK AO2 T01610107 10194 20161
KRNP 201135Z AUTO 06004KT 10SM OVC038 16/11 A2993 RMK AO2 T01620113
KRNP 201115Z AUTO 05004KT 10SM OVC038 17/11 A2993 RMK AO2 T01650110
KRNP 201055Z AUTO 06004KT 10SM OVC040 17/10 A2994 RMK AO2 T01660099
KRNP 201035Z AUTO 08004KT 10SM OVC040 17/09 A2994 RMK AO2 T01700090
KRNP 201015Z AUTO 05003KT 10SM OVC042 17/10 A2994 RMK AO2 T01700095
KRNP 200955Z AUTO 03006KT 10SM OVC044 17/11 A2994 RMK AO2 T01700109
KRNP 200935Z AUTO 01007KT 10SM -RA OVC048 18/12 A2994 RMK AO2 T01750115
KRNP 200915Z AUTO 01005KT 10SM OVC048 18/11 A2994 RMK AO2 T01800113
KRNP 200855Z AUTO 00000KT 10SM OVC046 18/11 A2993 RMK AO2 T01810113
KRNP 200835Z AUTO 00000KT 10SM OVC046 18/11 A2992 RMK AO2 T01820111
KRNP 200815Z AUTO 01004KT 10SM OVC046 18/11 A2992 RMK AO2 T01830113
KRNP 200755Z AUTO 02003KT 10SM OVC048 19/12 A2992 RMK AO2 T01870120
KRNP 200735Z AUTO 00000KT 10SM OVC048 19/11 A2992 RMK AO2 T01890110
KRNP 200715Z AUTO 08004KT 10SM OVC046 19/12 A2993 RMK AO2 T01900116
KRNP 200655Z AUTO 07004KT 10SM OVC048 19/13 A2993 RMK AO2 T01900126
KRNP 200635Z AUTO 08006KT 10SM OVC050 19/14 A2993 RMK AO2 T01910136
KRNP 200615Z AUTO 08004KT 10SM OVC050 19/14 A2994 RMK AO2 T01920136
KRNP 200555Z AUTO 06003KT 10SM OVC050 19/14 A2994 RMK AO2 T01940135 10228 20194
KRNP 200535Z AUTO 07006KT 10SM OVC050 20/14 A2994 RMK AO2 T01950135
KRNP 200515Z AUTO 06004KT 10SM OVC050 20/14 A2994 RMK AO2 T01970140
KRNP 200455Z AUTO 04005KT 10SM BKN050 OVC080 20/15 A2995 RMK AO2 T02000150 402480190
KRNP 200435Z AUTO 04006KT 10SM SCT041 BKN050 OVC080 20/15 A2994 RMK AO2 T02000148
KRNP 200415Z AUTO 05005KT 10SM SCT035 SCT041 OVC050 20/15 A2995 RMK AO2 T02020147
KRNP 200355Z AUTO 05004KT 10SM OVC050 20/15 A2995 RMK AO2 T02040148
KRNP 200335Z AUTO 04003KT 10SM SCT041 OVC050 21/15 A2995 RMK AO2 T02060149
KRNP 200315Z AUTO 05004KT 10SM BKN041 OVC050 21/15 A2996 RMK AO2 T02070151
KRNP 200255Z AUTO 04004KT 10SM SCT041 BKN050 OVC075 21/16 A2996 RMK AO2 T02060156
KRNP 200235Z AUTO 03003KT 10SM BKN050 OVC075 21/16 A2996 RMK AO2 T02060160
KRNP 200215Z AUTO 02003KT 10SM SCT055 OVC065 21/16 A2996 RMK AO2 T02060160
KRNP 200155Z AUTO 03006KT 10SM SCT065 OVC080 21/16 A2996 RMK AO2 T02080161
KRNP 200135Z AUTO 04004KT 7SM OVC080 21/17 A2996 RMK AO2 T02100165
KRNP 200115Z AUTO 02005KT 10SM OVC080 21/17 A2996 RMK AO2 T02110169
KRNP 200055Z AUTO 04006KT 10SM SCT017 SCT022 OVC080 22/17 A2997 RMK AO2 T02150173
KRNP 200035Z AUTO 01004KT 10SM SCT017 BKN023 OVC040 22/17 A2997 RMK AO2 T02160174
KRNP 200015Z AUTO 03004KT 10SM SCT024 BKN040 OVC080 23/18 A2997 RMK AO2 T02260180